Iberica Hav — C6YI3 — position and weather

sailwx.info

Track history (hours):
 
Tides and Currents Weather Stations Pressure Air Temp Water Temp Dewpoint Dewpoint Depression Visibility Wind Speed Wind Dir Waves Ship Positions

Iberica Hav

Last reported at 2015-May-28 15:20 UTC. Time now 2015-May-28 18:10 UTC.
Position N 46°31' W 004°11'.

Length 88 m; draft 3.8 m.

Type: Cargo ship. MMSI: 311034400.

Date/timePositionNaut miles runAvg speedWind from/ knotsBaromVisibWave heightAir tempDewpointWater temp
2015-May-28 15:20N 46°31' W 004°11'71 8.1
2015-May-28 06:33N 45°28' W 003°25'9 8.2
2015-May-28 05:30N 45°20' W 003°19'49 8.0
2015-May-27 23:24N 44°36' W 002°49'7 8.2
2015-May-27 22:33N 44°30' W 002°45'8 8.0
2015-May-27 21:32N 44°23' W 002°40'10 7.9
2015-May-27 20:19N 44°14' W 002°33'6 7.8
2015-May-27 19:33N 44°09' W 002°29'16 8.0
2015-May-27 17:31N 43°54' W 002°20'8 7.8
2015-May-27 16:33N 43°48' W 002°15'8 8.0
2015-May-27 15:33N 43°40' W 002°10'8 8.0
2015-May-27 14:33N 43°33' W 002°05'8 8.0
2015-May-27 13:33N 43°26' W 001°60'8 7.6
2015-May-27 12:31N 43°19' W 001°55'2 0.0
2015-May-25 19:26N 43°21' W 001°56'  
2015-May-20 09:33N 50°39' W 005°23'105 7.5
2015-May-19 19:32N 51°31' W 002°59'3 0.2
2015-May-19 02:21N 51°34' W 002°58'0 0.0
2015-May-19 01:03N 51°34' W 002°58'  
Track history (hours):
 
Tides and Currents Weather Stations Pressure Air Temp Water Temp Dewpoint Dewpoint Depression Visibility Wind Speed Wind Dir Waves Ship Positions

Iberica Hav

Last reported at 2015-May-28 15:20 UTC. Time now 2015-May-28 18:10 UTC.
Position N 46°31' W 004°11'.

Length 88 m; draft 3.8 m.

Type: Cargo ship. MMSI: 311034400.

Date/timePositionNaut miles runAvg speedWind from/ knotsBaromVisibWave heightAir tempDewpointWater temp
2015-May-28 15:20N 46°31' W 004°11'71 8.1
2015-May-28 06:33N 45°28' W 003°25'9 8.2
2015-May-28 05:30N 45°20' W 003°19'49 8.0
2015-May-27 23:24N 44°36' W 002°49'7 8.2
2015-May-27 22:33N 44°30' W 002°45'8 8.0
2015-May-27 21:32N 44°23' W 002°40'10 7.9
2015-May-27 20:19N 44°14' W 002°33'6 7.8
2015-May-27 19:33N 44°09' W 002°29'16 8.0
2015-May-27 17:31N 43°54' W 002°20'8 7.8
2015-May-27 16:33N 43°48' W 002°15'8 8.0
2015-May-27 15:33N 43°40' W 002°10'8 8.0
2015-May-27 14:33N 43°33' W 002°05'8 8.0
2015-May-27 13:33N 43°26' W 001°60'8 7.6
2015-May-27 12:31N 43°19' W 001°55'2 0.0
2015-May-25 19:26N 43°21' W 001°56'  
2015-May-20 09:33N 50°39' W 005°23'105 7.5
2015-May-19 19:32N 51°31' W 002°59'3 0.2
2015-May-19 02:21N 51°34' W 002°58'0 0.0
2015-May-19 01:03N 51°34' W 002°58'  

Dump ship's entire track history